sensor_id;sensor_type;location;lat;lon;timestamp;pressure;altitude;pressure_sealevel;temperature;humidity
74441;BME280;62870;54.692;25.284;2022-09-28T00:03:49;1015.4;;;13.2;68.8
74441;BME280;62870;54.692;25.284;2022-09-28T00:08:47;1015.3;;;13.2;68.6
74441;BME280;62870;54.692;25.284;2022-09-28T00:14:11;1015.2;;;13.2;68.6
74441;BME280;62870;54.692;25.284;2022-09-28T00:19:11;1015.2;;;13.1;69.1
74441;BME280;62870;54.692;25.284;2022-09-28T00:23:39;1015.2;;;13.1;69
74441;BME280;62870;54.692;25.284;2022-09-28T00:28:27;1015.1;;;13.1;68.8
74441;BME280;62870;54.692;25.284;2022-09-28T00:33:39;1015.1;;;13.1;68.6
74441;BME280;62870;54.692;25.284;2022-09-28T00:39:09;1015.1;;;13;69.1
74441;BME280;62870;54.692;25.284;2022-09-28T00:44:33;1015.1;;;13;69.2
74441;BME280;62870;54.692;25.284;2022-09-28T00:49:01;1015;;;13;69.4
74441;BME280;62870;54.692;25.284;2022-09-28T00:53:59;1014.9;;;13;69.3
74441;BME280;62870;54.692;25.284;2022-09-28T00:59:02;1014.8;;;13;69
74441;BME280;62870;54.692;25.284;2022-09-28T01:04:11;1014.8;;;12.8;69.3
74441;BME280;62870;54.692;25.284;2022-09-28T01:09:02;1014.8;;;12.8;69.6
74441;BME280;62870;54.692;25.284;2022-09-28T01:13:27;1014.8;;;12.7;69.8
74441;BME280;62870;54.692;25.284;2022-09-28T01:19:46;1014.7;;;12.6;70.1
74441;BME280;62870;54.692;25.284;2022-09-28T01:29:12;1014.6;;;12.6;69.9
74441;BME280;62870;54.692;25.284;2022-09-28T01:34:00;1014.5;;;12.6;69.8
74441;BME280;62870;54.692;25.284;2022-09-28T01:38:54;1014.5;;;12.6;69.9
74441;BME280;62870;54.692;25.284;2022-09-28T01:43:27;1014.5;;;12.5;70.2
74441;BME280;62870;54.692;25.284;2022-09-28T01:49:02;1014.5;;;12.5;70.2
74441;BME280;62870;54.692;25.284;2022-09-28T01:54:13;1014.5;;;12.6;70.3
74441;BME280;62870;54.692;25.284;2022-09-28T01:58:56;1014.5;;;12.6;70.1
74441;BME280;62870;54.692;25.284;2022-09-28T02:03:30;1014.5;;;12.6;69.9
74441;BME280;62870;54.692;25.284;2022-09-28T02:08:28;1014.4;;;12.6;69.8
74441;BME280;62870;54.692;25.284;2022-09-28T02:13:38;1014.4;;;12.6;69.7
74441;BME280;62870;54.692;25.284;2022-09-28T02:18:39;1014.4;;;12.5;70.1
74441;BME280;62870;54.692;25.284;2022-09-28T02:23:54;1014.4;;;12.4;70.2
74441;BME280;62870;54.692;25.284;2022-09-28T02:29:03;1014.4;;;12.4;70.1
74441;BME280;62870;54.692;25.284;2022-09-28T02:34:15;1014.4;;;12.3;70
74441;BME280;62870;54.692;25.284;2022-09-28T02:38:47;1014.3;;;12.3;69.9
74441;BME280;62870;54.692;25.284;2022-09-28T02:44:17;1014.3;;;12.3;70
74441;BME280;62870;54.692;25.284;2022-09-28T02:49:20;1014.2;;;12.3;70.1
74441;BME280;62870;54.692;25.284;2022-09-28T02:53:35;1014.2;;;12.3;70.2
74441;BME280;62870;54.692;25.284;2022-09-28T02:58:48;1014.2;;;12.3;70.1
74441;BME280;62870;54.692;25.284;2022-09-28T03:03:45;1014.2;;;12.3;69.9
74441;BME280;62870;54.692;25.284;2022-09-28T03:10:22;1014.3;;;12.3;69.8
74441;BME280;62870;54.692;25.284;2022-09-28T03:14:01;1014.3;;;12.2;69.8
74441;BME280;62870;54.692;25.284;2022-09-28T03:18:59;1014.2;;;12.1;70
74441;BME280;62870;54.692;25.284;2022-09-28T03:24:01;1014.2;;;12.1;70
74441;BME280;62870;54.692;25.284;2022-09-28T03:29:03;1014.2;;;12;70.3
74441;BME280;62870;54.692;25.284;2022-09-28T03:33:53;1014.3;;;12;70.2
74441;BME280;62870;54.692;25.284;2022-09-28T03:38:53;1014.3;;;12;70
74441;BME280;62870;54.692;25.284;2022-09-28T03:43:29;1014.2;;;11.9;70.1
74441;BME280;62870;54.692;25.284;2022-09-28T03:48:30;1014.2;;;11.8;70.1
74441;BME280;62870;54.692;25.284;2022-09-28T03:53:41;1014.1;;;11.8;70.1
74441;BME280;62870;54.692;25.284;2022-09-28T03:59:13;1014.1;;;11.8;70.3
74441;BME280;62870;54.692;25.284;2022-09-28T04:04:13;1014.1;;;11.7;70.2
74441;BME280;62870;54.692;25.284;2022-09-28T04:08:51;1014.1;;;11.7;70
74441;BME280;62870;54.692;25.284;2022-09-28T04:13:51;1014.1;;;11.6;69.8
74441;BME280;62870;54.692;25.284;2022-09-28T04:19:01;1014.1;;;11.5;70
74441;BME280;62870;54.692;25.284;2022-09-28T04:24:13;1014.1;;;11.4;70.1
74441;BME280;62870;54.692;25.284;2022-09-28T04:28:51;1014;;;11.4;69.9
74441;BME280;62870;54.692;25.284;2022-09-28T04:33:30;1014;;;11.4;69.9
74441;BME280;62870;54.692;25.284;2022-09-28T04:38:41;1014;;;11.4;69.8
74441;BME280;62870;54.692;25.284;2022-09-28T04:43:39;1014;;;11.4;69.6
74441;BME280;62870;54.692;25.284;2022-09-28T04:48:39;1014;;;11.3;69.5
74441;BME280;62870;54.692;25.284;2022-09-28T04:53:50;1014;;;11.3;69.6
74441;BME280;62870;54.692;25.284;2022-09-28T04:59:01;1014;;;11.3;69.6
74441;BME280;62870;54.692;25.284;2022-09-28T05:04:03;1013.9;;;11.2;69.6
74441;BME280;62870;54.692;25.284;2022-09-28T05:08:51;1013.8;;;11.2;69.5
74441;BME280;62870;54.692;25.284;2022-09-28T05:14:15;1013.7;;;11.2;69.3
74441;BME280;62870;54.692;25.284;2022-09-28T05:19:03;1013.7;;;11.3;69.1
74441;BME280;62870;54.692;25.284;2022-09-28T05:24:15;1013.6;;;11.4;68.9
74441;BME280;62870;54.692;25.284;2022-09-28T05:28:39;1013.6;;;11.5;68.6
74441;BME280;62870;54.692;25.284;2022-09-28T05:33:30;1013.5;;;11.7;68.3
74441;BME280;62870;54.692;25.284;2022-09-28T05:39:13;1013.5;;;11.8;67.9
74441;BME280;62870;54.692;25.284;2022-09-28T05:44:03;1013.6;;;11.9;67.4
74441;BME280;62870;54.692;25.284;2022-09-28T05:48:49;1013.5;;;12;66.6
74441;BME280;62870;54.692;25.284;2022-09-28T05:53:59;1013.4;;;12;66.2
74441;BME280;62870;54.692;25.284;2022-09-28T05:59:01;1013.4;;;12.1;66
74441;BME280;62870;54.692;25.284;2022-09-28T06:03:29;1013.3;;;12.2;65.9
74441;BME280;62870;54.692;25.284;2022-09-28T06:09:03;1013.4;;;12.3;65.8
74441;BME280;62870;54.692;25.284;2022-09-28T06:14:13;1013.3;;;12.4;65.4
74441;BME280;62870;54.692;25.284;2022-09-28T06:18:29;1013.3;;;12.4;64.7
74441;BME280;62870;54.692;25.284;2022-09-28T06:23:41;1013.3;;;12.5;64.6
74441;BME280;62870;54.692;25.284;2022-09-28T06:29:01;1013.3;;;12.4;65
74441;BME280;62870;54.692;25.284;2022-09-28T06:34:13;1013.4;;;12.4;65.1
74441;BME280;62870;54.692;25.284;2022-09-28T06:39:13;1013.3;;;12.3;65.6
74441;BME280;62870;54.692;25.284;2022-09-28T06:43:49;1013.2;;;12.5;65
74441;BME280;62870;54.692;25.284;2022-09-28T06:49:05;1013.2;;;12.4;64.9
74441;BME280;62870;54.692;25.284;2022-09-28T06:54:15;1013.2;;;12.4;64.8
74441;BME280;62870;54.692;25.284;2022-09-28T06:58:41;1013.1;;;12.4;64.7
74441;BME280;62870;54.692;25.284;2022-09-28T07:03:39;1013.2;;;12.4;65
74441;BME280;62870;54.692;25.284;2022-09-28T07:08:29;1013.2;;;12.5;64.7
74441;BME280;62870;54.692;25.284;2022-09-28T07:13:29;1013.2;;;12.5;64.7
74441;BME280;62870;54.692;25.284;2022-09-28T07:18:37;1013.2;;;12.5;64.8
74441;BME280;62870;54.692;25.284;2022-09-28T07:23:39;1013.2;;;12.5;64.5
74441;BME280;62870;54.692;25.284;2022-09-28T07:29:13;1013.2;;;12.5;64.3
74441;BME280;62870;54.692;25.284;2022-09-28T07:34:03;1013.1;;;12.4;64.2
74441;BME280;62870;54.692;25.284;2022-09-28T07:39:01;1013.1;;;12.5;64.1
74441;BME280;62870;54.692;25.284;2022-09-28T07:44:13;1013.1;;;12.6;64.1
74441;BME280;62870;54.692;25.284;2022-09-28T07:49:02;1013.1;;;13;63.2
74441;BME280;62870;54.692;25.284;2022-09-28T07:54:13;1013;;;13.2;62.6
74441;BME280;62870;54.692;25.284;2022-09-28T07:58:41;1013;;;13.3;61.8
74441;BME280;62870;54.692;25.284;2022-09-28T08:03:49;1013;;;13.3;61.3
74441;BME280;62870;54.692;25.284;2022-09-28T08:09:15;1013;;;13.4;60.9
74441;BME280;62870;54.692;25.284;2022-09-28T08:14:01;1013;;;13.4;61.3
74441;BME280;62870;54.692;25.284;2022-09-28T08:18:51;1013;;;13.5;61.5
74441;BME280;62870;54.692;25.284;2022-09-28T08:24:03;1013;;;13.6;61
74441;BME280;62870;54.692;25.284;2022-09-28T08:29:05;1012.9;;;13.5;60.8
74441;BME280;62870;54.692;25.284;2022-09-28T08:33:49;1012.9;;;13.6;60.4
74441;BME280;62870;54.692;25.284;2022-09-28T08:39:03;1012.9;;;13.8;60
74441;BME280;62870;54.692;25.284;2022-09-28T08:44:17;1012.9;;;14.1;59.5
74441;BME280;62870;54.692;25.284;2022-09-28T08:48:51;1012.9;;;14.4;58.9
74441;BME280;62870;54.692;25.284;2022-09-28T08:54:16;1012.9;;;14.7;58.2
74441;BME280;62870;54.692;25.284;2022-09-28T08:58:43;1012.8;;;15.1;57.4
74441;BME280;62870;54.692;25.284;2022-09-28T09:04:13;1012.8;;;15.2;55.5
74441;BME280;62870;54.692;25.284;2022-09-28T09:09:06;1012.8;;;15;56.1
74441;BME280;62870;54.692;25.284;2022-09-28T09:14:53;1012.8;;;14.8;57
74441;BME280;62870;54.692;25.284;2022-09-28T09:18:54;1012.8;;;14.6;57.5
74441;BME280;62870;54.692;25.284;2022-09-28T09:23:37;1012.8;;;14.5;57.8
74441;BME280;62870;54.692;25.284;2022-09-28T09:29:19;1012.8;;;14.4;58
74441;BME280;62870;54.692;25.284;2022-09-28T09:38:48;1012.6;;;13.7;58.8
74441;BME280;62870;54.692;25.284;2022-09-28T09:48:32;1012.5;;;13.6;58.8
74441;BME280;62870;54.692;25.284;2022-09-28T09:53:36;1012.5;;;13.7;58.6
74441;BME280;62870;54.692;25.284;2022-09-28T09:58:50;1012.5;;;14.2;57.9
74441;BME280;62870;54.692;25.284;2022-09-28T10:04:10;1012.5;;;14.6;56.4
74441;BME280;62870;54.692;25.284;2022-09-28T10:09:49;1012.5;;;14.6;56.1
74441;BME280;62870;54.692;25.284;2022-09-28T10:13:49;1012.5;;;14.3;56.8
74441;BME280;62870;54.692;25.284;2022-09-28T10:19:16;1012.5;;;14.2;57.4
74441;BME280;62870;54.692;25.284;2022-09-28T10:24:17;1012.5;;;14.1;57.8
74441;BME280;62870;54.692;25.284;2022-09-28T10:28:42;1012.4;;;14.2;57.6
74441;BME280;62870;54.692;25.284;2022-09-28T10:33:41;1012.4;;;14.1;57.9
74441;BME280;62870;54.692;25.284;2022-09-28T10:38:39;1012.4;;;14.2;57.8
74441;BME280;62870;54.692;25.284;2022-09-28T10:44:14;1012.3;;;14.2;58.3
74441;BME280;62870;54.692;25.284;2022-09-28T10:49:05;1012.4;;;14.2;58.3
74441;BME280;62870;54.692;25.284;2022-09-28T10:54:03;1012.4;;;14.1;58.5
74441;BME280;62870;54.692;25.284;2022-09-28T11:04:04;1012.3;;;14;58.9
74441;BME280;62870;54.692;25.284;2022-09-28T11:08:55;1012.3;;;13.8;59
74441;BME280;62870;54.692;25.284;2022-09-28T11:14:11;1012.3;;;13.6;59.7
74441;BME280;62870;54.692;25.284;2022-09-28T11:18:29;1012.3;;;13.7;59.6
74441;BME280;62870;54.692;25.284;2022-09-28T11:23:29;1012.3;;;13.6;59.7
74441;BME280;62870;54.692;25.284;2022-09-28T11:28:39;1012.2;;;13.5;59.5
74441;BME280;62870;54.692;25.284;2022-09-28T11:34:00;1012.1;;;13.7;59.2
74441;BME280;62870;54.692;25.284;2022-09-28T11:44:22;1012;;;13.7;59.5
74441;BME280;62870;54.692;25.284;2022-09-28T11:48:50;1012;;;13.8;59.4
74441;BME280;62870;54.692;25.284;2022-09-28T11:54:02;1011.9;;;13.6;59.5
74441;BME280;62870;54.692;25.284;2022-09-28T11:59:17;1011.9;;;13.6;59.6
74441;BME280;62870;54.692;25.284;2022-09-28T12:03:56;1011.9;;;13.6;59.7
74441;BME280;62870;54.692;25.284;2022-09-28T12:08:40;1011.8;;;13.4;60
74441;BME280;62870;54.692;25.284;2022-09-28T12:13:32;1011.8;;;13.3;60.6
74441;BME280;62870;54.692;25.284;2022-09-28T12:18:43;1011.8;;;13.2;60.7
74441;BME280;62870;54.692;25.284;2022-09-28T12:23:52;1011.8;;;13.2;60.6
74441;BME280;62870;54.692;25.284;2022-09-28T12:28:50;1011.8;;;13.1;60.7
74441;BME280;62870;54.692;25.284;2022-09-28T12:34:03;1011.7;;;13.1;61
74441;BME280;62870;54.692;25.284;2022-09-28T12:39:09;1011.7;;;13;61.4
74441;BME280;62870;54.692;25.284;2022-09-28T12:44:02;1011.7;;;13;61.7
74441;BME280;62870;54.692;25.284;2022-09-28T12:49:16;1011.7;;;12.9;61.7
74441;BME280;62870;54.692;25.284;2022-09-28T12:55:25;1011.6;;;12.8;61.9
74441;BME280;62870;54.692;25.284;2022-09-28T12:58:33;1011.6;;;12.7;62.1
74441;BME280;62870;54.692;25.284;2022-09-28T13:03:49;1011.6;;;12.6;62.2
74441;BME280;62870;54.692;25.284;2022-09-28T13:08:54;1011.7;;;12.4;63.2
74441;BME280;62870;54.692;25.284;2022-09-28T13:14:36;1011.7;;;12.4;63.8
74441;BME280;62870;54.692;25.284;2022-09-28T13:19:07;1011.7;;;12.4;63.8
74441;BME280;62870;54.692;25.284;2022-09-28T13:23:32;1011.7;;;12.4;63.8
74441;BME280;62870;54.692;25.284;2022-09-28T13:29:04;1011.7;;;12.4;63.6
74441;BME280;62870;54.692;25.284;2022-09-28T13:34:03;1011.7;;;12.4;63.6
74441;BME280;62870;54.692;25.284;2022-09-28T13:38:54;1011.7;;;12.3;64.1
74441;BME280;62870;54.692;25.284;2022-09-28T13:44:23;1011.7;;;12.3;64.3
74441;BME280;62870;54.692;25.284;2022-09-28T13:50:26;1011.7;;;12.4;64.5
74441;BME280;62870;54.692;25.284;2022-09-28T13:54:35;1011.7;;;12.4;64.8
74441;BME280;62870;54.692;25.284;2022-09-28T13:58:30;1011.7;;;12.3;64.7
74441;BME280;62870;54.692;25.284;2022-09-28T14:04:17;1011.7;;;12.3;65.2
74441;BME280;62870;54.692;25.284;2022-09-28T14:09:24;1011.8;;;12.2;66.3
74441;BME280;62870;54.692;25.284;2022-09-28T14:14:24;1011.8;;;12.2;67.3
74441;BME280;62870;54.692;25.284;2022-09-28T14:18:50;1011.8;;;12.3;68.2
74441;BME280;62870;54.692;25.284;2022-09-28T14:25:21;1011.8;;;12.2;68.4
74441;BME280;62870;54.692;25.284;2022-09-28T14:29:15;1011.8;;;12.2;68.5
74441;BME280;62870;54.692;25.284;2022-09-28T14:33:54;1011.8;;;12.1;68.5
74441;BME280;62870;54.692;25.284;2022-09-28T14:38:53;1011.8;;;11.9;69.7
74441;BME280;62870;54.692;25.284;2022-09-28T14:43:58;1011.8;;;11.8;71.1
74441;BME280;62870;54.692;25.284;2022-09-28T14:49:02;1011.8;;;11.7;71.5
74441;BME280;62870;54.692;25.284;2022-09-28T14:53:50;1011.9;;;11.7;72.4
74441;BME280;62870;54.692;25.284;2022-09-28T14:58:39;1011.9;;;11.7;72.3
74441;BME280;62870;54.692;25.284;2022-09-28T15:04:13;1011.9;;;11.7;71.9
74441;BME280;62870;54.692;25.284;2022-09-28T15:09:03;1011.9;;;11.6;72.5
74441;BME280;62870;54.692;25.284;2022-09-28T15:13:29;1011.9;;;11.6;73
74441;BME280;62870;54.692;25.284;2022-09-28T15:19:19;1011.9;;;11.6;73
74441;BME280;62870;54.692;25.284;2022-09-28T15:24:35;1011.9;;;11.7;73.2
74441;BME280;62870;54.692;25.284;2022-09-28T15:29:15;1011.9;;;11.8;72.8
74441;BME280;62870;54.692;25.284;2022-09-28T15:33:30;1011.9;;;11.8;72.2
74441;BME280;62870;54.692;25.284;2022-09-28T15:38:54;1011.9;;;11.7;72.7
74441;BME280;62870;54.692;25.284;2022-09-28T15:44:18;1011.9;;;11.6;73.6
74441;BME280;62870;54.692;25.284;2022-09-28T15:49:03;1011.9;;;11.5;73.9
74441;BME280;62870;54.692;25.284;2022-09-28T15:53:40;1011.9;;;11.5;74.1
74441;BME280;62870;54.692;25.284;2022-09-28T15:58:29;1012;;;11.4;73.8
74441;BME280;62870;54.692;25.284;2022-09-28T16:03:49;1012;;;11.5;73.8
74441;BME280;62870;54.692;25.284;2022-09-28T16:08:40;1011.9;;;11.4;73.7
74441;BME280;62870;54.692;25.284;2022-09-28T16:13:29;1011.9;;;11.4;73.9
74441;BME280;62870;54.692;25.284;2022-09-28T16:19:23;1011.9;;;11.3;74.4
74441;BME280;62870;54.692;25.284;2022-09-28T16:23:30;1011.9;;;11.3;74.5
74441;BME280;62870;54.692;25.284;2022-09-28T16:28:46;1011.9;;;11.3;74.4
74441;BME280;62870;54.692;25.284;2022-09-28T16:34:17;1012;;;11.3;74.3
74441;BME280;62870;54.692;25.284;2022-09-28T16:39:14;1012;;;11.3;74.2
74441;BME280;62870;54.692;25.284;2022-09-28T16:44:17;1012;;;11.3;74.3
74441;BME280;62870;54.692;25.284;2022-09-28T16:48:51;1012;;;11.3;74.3
74441;BME280;62870;54.692;25.284;2022-09-28T16:54:16;1012;;;11.2;74.8
74441;BME280;62870;54.692;25.284;2022-09-28T16:59:13;1012;;;11.3;74.5
74441;BME280;62870;54.692;25.284;2022-09-28T17:03:37;1011.9;;;11.3;74.6
74441;BME280;62870;54.692;25.284;2022-09-28T17:08:41;1011.9;;;11.3;74.8
74441;BME280;62870;54.692;25.284;2022-09-28T17:13:42;1011.8;;;11.4;74.5
74441;BME280;62870;54.692;25.284;2022-09-28T17:18:29;1011.8;;;11.4;74.2
74441;BME280;62870;54.692;25.284;2022-09-28T17:23:49;1011.8;;;11.3;74
74441;BME280;62870;54.692;25.284;2022-09-28T17:28:49;1011.8;;;11.2;74.1
74441;BME280;62870;54.692;25.284;2022-09-28T17:34:12;1011.8;;;11.3;74.5
74441;BME280;62870;54.692;25.284;2022-09-28T17:39:02;1011.7;;;11.3;74.7
74441;BME280;62870;54.692;25.284;2022-09-28T17:43:49;1011.8;;;11.3;74.3
74441;BME280;62870;54.692;25.284;2022-09-28T17:49:13;1011.8;;;11.3;74.4
74441;BME280;62870;54.692;25.284;2022-09-28T17:54:13;1011.8;;;11.2;74.5
74441;BME280;62870;54.692;25.284;2022-09-28T17:59:15;1011.8;;;11.2;74.5
74441;BME280;62870;54.692;25.284;2022-09-28T18:03:49;1011.8;;;11.2;74.6
74441;BME280;62870;54.692;25.284;2022-09-28T18:08:40;1011.9;;;11.2;74.6
74441;BME280;62870;54.692;25.284;2022-09-28T18:13:29;1011.9;;;11.2;74.9
74441;BME280;62870;54.692;25.284;2022-09-28T18:19:15;1011.9;;;11.2;75.1
74441;BME280;62870;54.692;25.284;2022-09-28T18:24:01;1011.9;;;11.2;75.3
74441;BME280;62870;54.692;25.284;2022-09-28T18:28:59;1011.9;;;11.2;75
74441;BME280;62870;54.692;25.284;2022-09-28T18:33:58;1011.9;;;11.2;74.6
74441;BME280;62870;54.692;25.284;2022-09-28T18:39:15;1011.9;;;11.2;75.2
74441;BME280;62870;54.692;25.284;2022-09-28T18:43:29;1011.9;;;11.2;75.2
74441;BME280;62870;54.692;25.284;2022-09-28T18:49:04;1011.8;;;11.3;74.8
74441;BME280;62870;54.692;25.284;2022-09-28T18:53:30;1011.8;;;11.2;75
74441;BME280;62870;54.692;25.284;2022-09-28T18:58:53;1011.9;;;11.2;75.1
74441;BME280;62870;54.692;25.284;2022-09-28T19:03:44;1011.9;;;11.2;75
74441;BME280;62870;54.692;25.284;2022-09-28T19:09:11;1011.9;;;11.2;74.8
74441;BME280;62870;54.692;25.284;2022-09-28T19:13:59;1011.8;;;11.3;74.7
74441;BME280;62870;54.692;25.284;2022-09-28T19:19:03;1011.8;;;11.3;74.7
74441;BME280;62870;54.692;25.284;2022-09-28T19:23:49;1011.8;;;11.4;74.1
74441;BME280;62870;54.692;25.284;2022-09-28T19:29:02;1011.8;;;11.5;73.4
74441;BME280;62870;54.692;25.284;2022-09-28T19:34:14;1011.9;;;11.4;74
74441;BME280;62870;54.692;25.284;2022-09-28T19:38:51;1011.9;;;11.5;74.1
74441;BME280;62870;54.692;25.284;2022-09-28T19:43:29;1011.9;;;11.5;73.9
74441;BME280;62870;54.692;25.284;2022-09-28T19:48:30;1011.8;;;11.6;73.4
74441;BME280;62870;54.692;25.284;2022-09-28T19:53:39;1011.8;;;11.5;73.5
74441;BME280;62870;54.692;25.284;2022-09-28T19:58:49;1011.8;;;11.3;74.6
74441;BME280;62870;54.692;25.284;2022-09-28T20:03:47;1011.9;;;11.1;75.3
74441;BME280;62870;54.692;25.284;2022-09-28T20:09:04;1011.9;;;11.2;75.3
74441;BME280;62870;54.692;25.284;2022-09-28T20:14:14;1011.9;;;11.3;74.6
74441;BME280;62870;54.692;25.284;2022-09-28T20:18:54;1011.9;;;11.4;74.4
74441;BME280;62870;54.692;25.284;2022-09-28T20:24:14;1011.9;;;11.3;74.1
74441;BME280;62870;54.692;25.284;2022-09-28T20:29:15;1011.9;;;11.3;74.2
74441;BME280;62870;54.692;25.284;2022-09-28T20:33:53;1011.9;;;11.3;74.9
74441;BME280;62870;54.692;25.284;2022-09-28T20:38:29;1012;;;11.2;74.6
74441;BME280;62870;54.692;25.284;2022-09-28T20:43:29;1012;;;11.2;74.5
74441;BME280;62870;54.692;25.284;2022-09-28T20:49:15;1012;;;11.2;74.6
74441;BME280;62870;54.692;25.284;2022-09-28T20:54:14;1012;;;11.2;74.4
74441;BME280;62870;54.692;25.284;2022-09-28T20:58:52;1012;;;11.1;74.7
74441;BME280;62870;54.692;25.284;2022-09-28T21:03:39;1012.1;;;11.1;75.1
74441;BME280;62870;54.692;25.284;2022-09-28T21:08:40;1012.2;;;11.2;75.3
74441;BME280;62870;54.692;25.284;2022-09-28T21:14:15;1012.2;;;11.2;75.3
74441;BME280;62870;54.692;25.284;2022-09-28T21:18:50;1012.1;;;11.3;75.1
74441;BME280;62870;54.692;25.284;2022-09-28T21:24:00;1012.2;;;11.4;74.9
74441;BME280;62870;54.692;25.284;2022-09-28T21:29:02;1012.3;;;11.5;74.5
74441;BME280;62870;54.692;25.284;2022-09-28T21:34:12;1012.3;;;11.6;73.8
74441;BME280;62870;54.692;25.284;2022-09-28T21:38:49;1012.2;;;11.6;73.6
74441;BME280;62870;54.692;25.284;2022-09-28T21:44:01;1012.3;;;11.7;74
74441;BME280;62870;54.692;25.284;2022-09-28T21:48:30;1012.4;;;11.7;74.2
74441;BME280;62870;54.692;25.284;2022-09-28T21:53:31;1012.5;;;11.7;73.9
74441;BME280;62870;54.692;25.284;2022-09-28T21:58:30;1012.6;;;11.6;74.5
74441;BME280;62870;54.692;25.284;2022-09-28T22:04:01;1012.6;;;11.5;75.1
74441;BME280;62870;54.692;25.284;2022-09-28T22:08:37;1012.6;;;11.5;75.4
74441;BME280;62870;54.692;25.284;2022-09-28T22:13:51;1012.6;;;11.5;75.6
74441;BME280;62870;54.692;25.284;2022-09-28T22:18:52;1012.7;;;11.5;75.6
74441;BME280;62870;54.692;25.284;2022-09-28T22:24:16;1012.8;;;11.6;75.3
74441;BME280;62870;54.692;25.284;2022-09-28T22:28:54;1012.8;;;11.5;75.9
74441;BME280;62870;54.692;25.284;2022-09-28T22:34:02;1012.9;;;11.4;76.7
74441;BME280;62870;54.692;25.284;2022-09-28T22:38:50;1013;;;11.4;77
74441;BME280;62870;54.692;25.284;2022-09-28T22:43:30;1013;;;11.3;77.4
74441;BME280;62870;54.692;25.284;2022-09-28T22:49:01;1012.9;;;11.3;77.5
74441;BME280;62870;54.692;25.284;2022-09-28T22:53:47;1012.9;;;11.3;77.1
74441;BME280;62870;54.692;25.284;2022-09-28T22:58:27;1012.9;;;11.3;77.4
74441;BME280;62870;54.692;25.284;2022-09-28T23:04:09;1012.9;;;11.3;77.4
74441;BME280;62870;54.692;25.284;2022-09-28T23:09:00;1013;;;11.3;77.5
74441;BME280;62870;54.692;25.284;2022-09-28T23:13:27;1013;;;11.3;77.9
74441;BME280;62870;54.692;25.284;2022-09-28T23:19:11;1013;;;11.4;77.3
74441;BME280;62870;54.692;25.284;2022-09-28T23:24:00;1013;;;11.4;76.8
74441;BME280;62870;54.692;25.284;2022-09-28T23:29:11;1012.9;;;11.2;77.5
74441;BME280;62870;54.692;25.284;2022-09-28T23:33:48;1012.9;;;11.2;77.8
74441;BME280;62870;54.692;25.284;2022-09-28T23:38:36;1012.8;;;11.3;77.6
74441;BME280;62870;54.692;25.284;2022-09-28T23:44:10;1012.8;;;11.4;77.2
74441;BME280;62870;54.692;25.284;2022-09-28T23:48:58;1012.8;;;11.5;76.6
74441;BME280;62870;54.692;25.284;2022-09-28T23:53:28;1012.7;;;11.5;76.4
74441;BME280;62870;54.692;25.284;2022-09-28T23:58:48;1012.7;;;11.4;76
